Time;durP1;ratioP1;P1;durP2;ratioP2;P2;SDS_P1;SDS_P2;PMS_P1;PMS_P2;Temp;Humidity;BMP_temperature;BMP_pressure;BME280_temperature;BME280_humidity;BME280_pressure;Samples;Min_cycle;Max_cycle;Signal;HPM_P1;HPM_P2
2022/03/23 00:01:44;;;;;;;24.92;13.83;;;;;;;3.00;46.90;99210.86;1752842;81;21988;-79
2022/03/23 00:04:10;;;;;;;27.25;14.05;;;;;;;2.98;46.96;99212.58;1756294;82;20983;-79
2022/03/23 00:06:37;;;;;;;28.87;14.55;;;;;;;2.94;46.53;99208.58;1756472;82;21054;-79
2022/03/23 00:09:04;;;;;;;30.85;15.13;;;;;;;2.87;46.79;99207.55;1756534;82;21007;-79
2022/03/23 00:11:33;;;;;;;27.50;13.53;;;;;;;2.75;49.21;99206.42;1755108;82;21032;-79
2022/03/23 00:13:59;;;;;;;28.25;14.23;;;;;;;2.68;50.63;99204.95;1764767;80;20976;-79
2022/03/23 00:16:26;;;;;;;31.45;15.80;;;;;;;2.64;49.45;99208.83;1754768;80;20962;-79
2022/03/23 00:18:53;;;;;;;30.37;15.30;;;;;;;2.56;51.21;99211.69;1736799;82;21424;-81
2022/03/23 00:21:20;;;;;;;27.32;14.03;;;;;;;2.52;51.04;99207.23;1750977;80;21035;-81
2022/03/23 00:23:46;;;;;;;27.15;14.45;;;;;;;2.52;50.04;99205.06;1756139;82;21011;-81
2022/03/23 00:26:13;;;;;;;27.48;13.50;;;;;;;2.53;48.93;99203.76;1756118;82;21070;-80
2022/03/23 00:28:40;;;;;;;31.23;14.95;;;;;;;2.51;50.05;99201.55;1756247;82;21054;-81
2022/03/23 00:31:09;;;;;;;32.45;15.65;;;;;;;2.53;49.65;99200.28;1756435;81;21019;-80
2022/03/23 00:33:37;;;;;;;27.30;13.58;;;;;;;2.50;50.21;99208.50;1756265;82;21020;-80
2022/03/23 00:36:05;;;;;;;26.93;13.72;;;;;;;2.46;50.62;99202.73;1756454;82;21011;-81
2022/03/23 00:38:32;;;;;;;30.95;14.20;;;;;;;2.44;49.67;99196.59;1756250;82;20996;-81
2022/03/23 00:40:59;;;;;;;30.62;12.47;;;;;;;2.37;49.78;99200.80;1756381;82;21046;-81
2022/03/23 00:43:25;;;;;;;27.73;13.43;;;;;;;2.32;50.92;99197.64;1756386;82;20956;-81
2022/03/23 00:45:52;;;;;;;26.93;13.62;;;;;;;2.29;51.31;99205.41;1756290;82;21039;-80
2022/03/23 00:48:19;;;;;;;22.90;12.55;;;;;;;2.23;50.42;99197.88;1756467;82;21027;-80
2022/03/23 00:50:45;;;;;;;28.70;15.25;;;;;;;2.21;51.62;99202.16;1756576;82;21425;-80
2022/03/23 00:53:12;;;;;;;22.58;13.55;;;;;;;2.20;49.69;99204.33;1756090;82;21016;-80
2022/03/23 00:55:41;;;;;;;26.52;13.53;;;;;;;2.11;50.31;99198.47;1756459;82;21043;-80
2022/03/23 00:58:09;;;;;;;25.52;13.70;;;;;;;2.10;51.35;99198.01;1755266;82;21019;-79
2022/03/23 01:00:36;;;;;;;30.10;13.62;;;;;;;2.12;51.09;99198.05;1756468;82;20980;-79
2022/03/23 01:03:04;;;;;;;28.27;13.60;;;;;;;2.12;51.91;99207.20;1756251;82;21000;-80
2022/03/23 01:05:32;;;;;;;28.45;13.15;;;;;;;2.09;52.39;99200.17;1755944;82;21077;-80
2022/03/23 01:07:59;;;;;;;29.07;12.53;;;;;;;2.10;52.10;99198.01;1754275;82;21055;-79
2022/03/23 01:10:27;;;;;;;26.55;12.53;;;;;;;2.08;50.67;99197.52;1755959;82;21385;-80
2022/03/23 01:12:54;;;;;;;28.27;13.72;;;;;;;2.05;51.31;99197.42;1756070;82;21460;-80
2022/03/23 01:15:21;;;;;;;26.48;12.15;;;;;;;2.05;50.83;99198.73;1753779;82;21437;-79
2022/03/23 01:17:49;;;;;;;21.82;11.53;;;;;;;2.04;51.21;99196.53;1750569;81;21015;-80
2022/03/23 01:20:19;;;;;;;23.15;12.98;;;;;;;2.03;52.18;99199.13;1754409;82;21437;-80
2022/03/23 01:22:47;;;;;;;25.55;12.47;;;;;;;2.03;52.05;99199.13;1767953;81;21026;-80
2022/03/23 01:25:14;;;;;;;23.83;13.25;;;;;;;2.00;53.02;99195.13;1768640;81;21445;-80
2022/03/23 01:27:43;;;;;;;25.32;11.85;;;;;;;2.00;52.09;99193.81;1768812;81;21441;-80
2022/03/23 01:30:13;;;;;;;27.35;12.07;;;;;;;1.96;52.93;99197.66;1769873;80;21378;-81
2022/03/23 01:32:41;;;;;;;22.55;12.18;;;;;;;1.90;53.31;99201.84;1770020;81;20981;-81
2022/03/23 01:35:10;;;;;;;24.20;12.53;;;;;;;1.91;52.10;99199.27;1769941;81;21421;-81
2022/03/23 01:37:37;;;;;;;24.12;12.35;;;;;;;1.93;51.88;99200.21;1770114;81;20990;-81
2022/03/23 01:40:08;;;;;;;27.10;12.03;;;;;;;1.90;50.79;99205.35;1770333;81;21022;-82
2022/03/23 01:42:38;;;;;;;25.60;12.80;;;;;;;1.86;50.75;99198.27;1770319;81;20963;-82
2022/03/23 01:45:08;;;;;;;29.92;12.90;;;;;;;1.81;53.46;99195.56;1770149;81;21065;-82
2022/03/23 01:47:36;;;;;;;27.02;13.65;;;;;;;1.81;52.84;99202.50;1770015;81;20995;-82
2022/03/23 01:50:05;;;;;;;26.12;13.68;;;;;;;1.79;53.00;99201.16;1770231;81;21011;-81
2022/03/23 01:52:33;;;;;;;26.27;12.70;;;;;;;1.78;53.11;99205.06;1770100;81;21453;-81
2022/03/23 01:55:13;;;;;;;27.73;13.53;;;;;;;1.76;52.15;99202.81;1769996;81;21441;-82
2022/03/23 01:57:44;;;;;;;25.82;13.00;;;;;;;1.80;51.95;99204.66;1770193;81;20982;-81
2022/03/23 02:00:12;;;;;;;29.48;12.93;;;;;;;1.77;52.53;99202.86;1770337;81;21033;-82
2022/03/23 02:02:41;;;;;;;27.67;13.22;;;;;;;1.71;52.26;99202.27;1770309;81;21377;-82
2022/03/23 02:05:08;;;;;;;25.08;11.70;;;;;;;1.66;52.83;99205.19;1770203;81;21047;-81
2022/03/23 02:07:35;;;;;;;28.60;13.05;;;;;;;1.66;53.14;99209.55;1742059;81;21408;-81
2022/03/23 02:10:08;;;;;;;24.27;12.00;;;;;;;1.57;53.08;99204.53;1770133;81;21003;-81
2022/03/23 02:12:37;;;;;;;23.18;12.00;;;;;;;1.57;53.20;99204.53;1767637;81;21086;-81
2022/03/23 02:15:17;;;;;;;24.85;11.95;;;;;;;1.56;53.79;99197.95;1770119;81;20983;-82
2022/03/23 02:17:46;;;;;;;22.65;11.40;;;;;;;1.56;52.02;99191.02;1769917;81;21480;-79
2022/03/23 02:20:14;;;;;;;27.05;11.60;;;;;;;1.55;52.90;99202.31;1705377;83;21055;-81
2022/03/23 02:22:41;;;;;;;26.23;12.03;;;;;;;1.58;51.76;99199.77;1711589;83;21548;-81
2022/03/23 02:25:09;;;;;;;26.57;12.95;;;;;;;1.53;52.55;99205.29;1704490;84;21058;-82
2022/03/23 02:27:38;;;;;;;26.93;13.93;;;;;;;1.49;51.71;99200.82;1701060;84;20992;-81
2022/03/23 02:30:07;;;;;;;21.62;11.97;;;;;;;1.45;53.10;99203.78;1703886;84;21441;-81
2022/03/23 02:32:34;;;;;;;26.23;13.78;;;;;;;1.40;52.70;99201.47;1703649;84;21043;-80
2022/03/23 02:35:02;;;;;;;23.92;12.55;;;;;;;1.38;53.43;99201.87;1703857;84;21513;-81
2022/03/23 02:37:28;;;;;;;25.08;12.80;;;;;;;1.39;52.42;99203.63;1703924;84;21038;-81
2022/03/23 02:39:55;;;;;;;28.70;14.15;;;;;;;1.35;52.36;99203.48;1706545;82;21015;-80
2022/03/23 02:42:22;;;;;;;33.83;15.32;;;;;;;1.29;52.16;99200.30;1705492;84;20956;-79
2022/03/23 02:44:50;;;;;;;28.65;14.93;;;;;;;1.22;52.21;99197.05;1705493;84;20964;-80
2022/03/23 02:47:16;;;;;;;32.35;14.60;;;;;;;1.15;52.36;99198.59;1705555;84;21023;-80
2022/03/23 02:49:43;;;;;;;31.07;14.53;;;;;;;1.10;52.62;99194.98;1756847;81;21011;-80
2022/03/23 02:52:10;;;;;;;30.15;12.63;;;;;;;1.04;52.47;99195.27;1756618;82;21035;-79
2022/03/23 03:03:42;;;;;;;18.35;8.55;;;;;;;0.94;53.38;99205.39;1756921;82;20975;-79
2022/03/23 03:06:09;;;;;;;16.67;9.13;;;;;;;0.98;53.08;99202.94;1720064;83;21379;-79
2022/03/23 03:08:51;;;;;;;17.65;9.35;;;;;;;1.00;53.26;99197.77;1696982;84;21067;-79
2022/03/23 03:11:19;;;;;;;17.67;8.90;;;;;;;0.99;52.82;99203.39;1705417;84;21501;-79
2022/03/23 03:13:48;;;;;;;16.77;9.73;;;;;;;1.01;52.87;99203.03;1705335;83;21074;-79
2022/03/23 03:16:16;;;;;;;16.77;9.18;;;;;;;1.01;53.23;99199.53;1705651;83;21023;-79
2022/03/23 03:18:43;;;;;;;23.55;10.03;;;;;;;1.00;53.09;99199.06;1705773;83;21013;-79
2022/03/23 03:21:11;;;;;;;14.98;8.78;;;;;;;0.96;55.80;99199.41;1751292;80;21448;-79
2022/03/23 03:23:41;;;;;;;18.60;8.48;;;;;;;0.94;54.61;99198.47;1754835;82;21055;-80
2022/03/23 03:26:10;;;;;;;17.98;9.80;;;;;;;0.94;54.63;99201.07;1754721;82;21050;-80
2022/03/23 03:28:38;;;;;;;20.12;10.10;;;;;;;0.91;54.82;99203.17;1754895;82;21410;-80
2022/03/23 03:31:08;;;;;;;18.77;9.08;;;;;;;0.90;55.09;99204.02;1754694;82;21031;-80
2022/03/23 03:33:36;;;;;;;18.60;8.93;;;;;;;0.91;55.05;99195.75;1754683;82;20996;-80
2022/03/23 03:36:05;;;;;;;16.73;8.98;;;;;;;0.89;54.78;99197.04;1736925;83;21010;-80
2022/03/23 03:38:33;;;;;;;14.78;8.23;;;;;;;0.88;54.72;99196.98;1754881;82;20983;-80
2022/03/23 03:41:01;;;;;;;21.40;9.95;;;;;;;0.88;54.58;99192.63;1736708;83;21016;-79
2022/03/23 03:43:29;;;;;;;19.30;9.00;;;;;;;0.89;54.12;99193.53;1734742;83;21012;-80
2022/03/23 03:45:55;;;;;;;18.40;9.03;;;;;;;0.87;54.00;99197.39;1734764;83;21062;-78
2022/03/23 03:48:22;;;;;;;14.70;8.88;;;;;;;0.90;53.84;99196.19;1735021;82;20994;-79
2022/03/23 03:50:51;;;;;;;16.23;8.35;;;;;;;0.90;53.93;99194.89;1701848;84;21054;-79
2022/03/23 03:53:18;;;;;;;19.95;9.05;;;;;;;0.86;54.64;99191.72;1700968;84;21098;-79
2022/03/23 03:55:44;;;;;;;21.48;9.88;;;;;;;0.86;54.58;99195.63;1706088;84;21024;-79
2022/03/23 03:58:12;;;;;;;18.98;9.60;;;;;;;0.84;53.79;99193.82;1754967;82;21082;-79
2022/03/23 04:00:39;;;;;;;19.30;9.50;;;;;;;0.81;53.76;99196.33;1734731;83;21436;-79
2022/03/23 04:03:06;;;;;;;21.55;8.70;;;;;;;0.78;54.28;99194.52;1734764;82;21035;-79
2022/03/23 04:05:34;;;;;;;19.30;9.43;;;;;;;0.76;54.85;99197.52;1736727;83;21014;-78
2022/03/23 04:08:01;;;;;;;20.20;9.03;;;;;;;0.72;54.49;99198.26;1754775;82;21031;-79
2022/03/23 04:10:28;;;;;;;20.35;9.15;;;;;;;0.70;54.57;99194.73;1736925;83;21058;-79
2022/03/23 04:12:56;;;;;;;18.85;8.73;;;;;;;0.70;54.39;99193.43;1734822;83;21426;-79
2022/03/23 04:15:24;;;;;;;15.85;8.78;;;;;;;0.67;54.30;99194.22;1712087;83;21041;-79
2022/03/23 04:17:52;;;;;;;19.67;9.23;;;;;;;0.66;54.07;99187.20;1753837;80;21432;-79
2022/03/23 04:20:18;;;;;;;19.50;9.23;;;;;;;0.64;54.61;99182.38;1711738;83;21023;-79
2022/03/23 04:22:45;;;;;;;20.17;8.75;;;;;;;0.62;55.97;99182.77;1715149;83;21380;-79
2022/03/23 04:25:13;;;;;;;17.77;9.40;;;;;;;0.62;54.65;99191.90;1708217;84;21022;-79
2022/03/23 04:27:52;;;;;;;19.67;9.30;;;;;;;0.61;54.40;99187.09;1750296;82;21031;-79
2022/03/23 04:30:21;;;;;;;21.17;8.70;;;;;;;0.62;54.11;99189.29;1756110;82;21054;-79
2022/03/23 04:32:50;;;;;;;21.20;9.60;;;;;;;0.63;54.64;99193.22;1756289;82;21015;-79
2022/03/23 04:35:20;;;;;;;15.98;8.93;;;;;;;0.63;54.27;99188.45;1756588;82;21071;-79
2022/03/23 04:37:47;;;;;;;22.27;9.38;;;;;;;0.64;55.42;99184.98;1756391;82;21047;-79
2022/03/23 04:40:15;;;;;;;19.05;8.78;;;;;;;0.60;54.99;99193.56;1756842;82;20999;-79
2022/03/23 04:42:44;;;;;;;21.23;8.45;;;;;;;0.56;56.18;99191.69;1720665;83;21020;-79
2022/03/23 04:45:12;;;;;;;20.05;8.95;;;;;;;0.54;54.96;99190.77;1723665;83;21038;-79
2022/03/23 04:47:39;;;;;;;19.42;8.48;;;;;;;0.52;56.32;99191.62;1705612;84;21409;-79
2022/03/23 04:50:08;;;;;;;22.42;8.80;;;;;;;0.52;55.59;99186.81;1705487;84;21030;-80
2022/03/23 04:52:37;;;;;;;15.65;8.53;;;;;;;0.54;54.99;99184.25;1705194;84;21092;-80
2022/03/23 04:55:05;;;;;;;17.57;8.33;;;;;;;0.56;54.87;99180.84;1705279;83;20998;-80
2022/03/23 04:57:32;;;;;;;15.00;7.58;;;;;;;0.57;55.65;99190.44;1720518;83;21024;-80
2022/03/23 04:59:58;;;;;;;17.50;8.10;;;;;;;0.57;56.48;99187.83;1707845;84;20994;-80
2022/03/23 05:02:26;;;;;;;18.27;7.25;;;;;;;0.60;56.10;99192.25;1751114;82;21126;-78
2022/03/23 05:04:53;;;;;;;17.30;7.85;;;;;;;0.64;55.68;99183.69;1756464;82;21429;-79
2022/03/23 05:07:19;;;;;;;12.50;7.35;;;;;;;0.71;55.64;99187.36;1756554;81;21004;-79
2022/03/23 05:09:46;;;;;;;12.95;7.17;;;;;;;0.81;56.00;99188.50;1756716;81;21035;-79
2022/03/23 05:12:12;;;;;;;12.88;7.45;;;;;;;1.04;55.10;99198.32;1756480;81;21008;-80
2022/03/23 05:14:39;;;;;;;17.92;7.75;;;;;;;1.22;54.21;99197.05;1756465;82;21388;-79
2022/03/23 05:17:05;;;;;;;16.62;8.53;;;;;;;1.20;54.16;99196.13;1720760;83;21075;-80
2022/03/23 05:19:32;;;;;;;15.13;8.03;;;;;;;1.12;54.90;99205.92;1708274;83;20983;-80
2022/03/23 05:21:58;;;;;;;15.70;8.13;;;;;;;1.11;54.47;99202.86;1751227;82;21011;-79
2022/03/23 05:24:25;;;;;;;19.42;8.68;;;;;;;1.08;55.03;99198.84;1751061;82;20968;-79
2022/03/23 05:26:51;;;;;;;19.98;9.80;;;;;;;1.09;54.55;99203.66;1751208;82;21051;-79
2022/03/23 05:29:18;;;;;;;19.20;9.85;;;;;;;1.16;54.06;99210.84;1756554;82;21027;-79
2022/03/23 05:31:45;;;;;;;22.95;9.73;;;;;;;1.17;54.55;99210.85;1756480;82;20999;-80
2022/03/23 05:34:12;;;;;;;17.37;10.28;;;;;;;1.17;54.93;99209.55;1756744;81;21062;-79
2022/03/23 05:36:39;;;;;;;21.25;9.90;;;;;;;1.20;54.41;99206.58;1756330;82;21020;-79
2022/03/23 05:39:05;;;;;;;22.05;10.20;;;;;;;1.20;54.06;99208.75;1756686;82;20987;-79
2022/03/23 05:41:32;;;;;;;21.27;9.98;;;;;;;1.24;54.20;99206.69;1756608;82;21056;-79
2022/03/23 05:43:58;;;;;;;23.95;9.30;;;;;;;1.27;54.28;99214.63;1719041;83;21017;-79
2022/03/23 05:46:25;;;;;;;18.27;9.15;;;;;;;1.30;54.80;99210.77;1706518;84;21007;-79
2022/03/23 05:48:54;;;;;;;21.37;9.15;;;;;;;1.34;54.68;99208.25;1748655;82;20980;-79
2022/03/23 05:51:21;;;;;;;20.00;9.55;;;;;;;1.40;53.91;99204.49;1747696;82;21063;-80
2022/03/23 05:53:47;;;;;;;22.55;9.95;;;;;;;1.46;54.26;99203.38;1720803;83;21043;-80
2022/03/23 05:56:14;;;;;;;19.27;10.13;;;;;;;1.51;54.61;99198.26;1707289;84;20988;-80
2022/03/23 05:58:40;;;;;;;21.75;10.10;;;;;;;1.61;54.62;99199.40;1751529;82;21058;-79
2022/03/23 06:01:07;;;;;;;20.23;9.20;;;;;;;1.68;54.56;99193.47;1756368;81;21373;-80
2022/03/23 06:03:35;;;;;;;29.50;10.03;;;;;;;1.77;53.77;99185.86;1720667;83;21036;-80
2022/03/23 06:06:03;;;;;;;21.85;9.68;;;;;;;1.88;53.69;99187.45;1707275;84;21404;-80
2022/03/23 06:08:29;;;;;;;16.57;8.68;;;;;;;2.00;53.36;99182.05;1705521;84;21000;-79
2022/03/23 06:10:56;;;;;;;21.10;7.83;;;;;;;2.10;53.45;99183.63;1747380;82;20986;-80
2022/03/23 06:13:22;;;;;;;21.42;8.48;;;;;;;2.26;53.38;99192.23;1751405;82;20991;-80
2022/03/23 06:15:49;;;;;;;17.95;9.05;;;;;;;2.38;53.08;99193.40;1751245;82;21373;-80
2022/03/23 06:18:15;;;;;;;17.80;8.10;;;;;;;2.49;52.70;99194.96;1751506;82;21094;-80
2022/03/23 06:20:42;;;;;;;18.25;8.48;;;;;;;2.62;52.61;99187.40;1745281;80;20969;-80
2022/03/23 06:23:08;;;;;;;19.98;9.23;;;;;;;2.72;52.54;99191.98;1761591;80;21070;-79
2022/03/23 06:25:36;;;;;;;20.40;8.98;;;;;;;2.83;52.13;99193.49;1773205;81;20995;-78
2022/03/23 06:28:03;;;;;;;19.50;8.75;;;;;;;2.94;51.91;99199.41;1773085;81;21078;-79
2022/03/23 06:30:29;;;;;;;20.32;9.38;;;;;;;3.03;51.67;99188.68;1772862;81;20964;-78
2022/03/23 06:32:56;;;;;;;22.50;9.80;;;;;;;3.16;51.63;99185.87;1773405;81;21057;-79
2022/03/23 06:35:24;;;;;;;16.15;9.15;;;;;;;3.29;51.71;99193.98;1773177;81;20967;-78
2022/03/23 06:37:50;;;;;;;22.22;10.53;;;;;;;3.40;52.08;99188.92;1773233;81;21340;-78
2022/03/23 06:40:18;;;;;;;25.70;11.48;;;;;;;3.53;51.64;99186.13;1773222;81;21038;-79
2022/03/23 06:42:45;;;;;;;20.25;11.28;;;;;;;3.63;51.08;99180.61;1773221;81;21527;-78
2022/03/23 06:45:12;;;;;;;25.02;11.38;;;;;;;3.76;50.88;99182.59;1773246;81;20975;-79
2022/03/23 06:47:39;;;;;;;24.25;11.45;;;;;;;3.91;50.48;99181.09;1770563;81;21005;-80
2022/03/23 06:50:09;;;;;;;25.70;10.60;;;;;;;4.04;50.32;99171.67;1763488;81;21011;-79
2022/03/23 06:52:36;;;;;;;20.43;10.40;;;;;;;4.14;49.90;99175.31;1768251;81;21002;-79
2022/03/23 06:55:03;;;;;;;23.47;9.93;;;;;;;4.30;49.14;99173.39;1773286;81;20990;-79
2022/03/23 06:57:30;;;;;;;24.43;10.45;;;;;;;4.47;48.49;99177.58;1722331;82;20948;-79
2022/03/23 06:59:57;;;;;;;34.60;17.23;;;;;;;4.62;48.74;99178.66;1696518;83;21061;-80
2022/03/23 07:02:23;;;;;;;26.80;11.85;;;;;;;4.73;48.09;99166.54;1749849;82;21470;-80
2022/03/23 07:04:50;;;;;;;23.62;9.68;;;;;;;4.87;47.95;99169.33;1706420;83;20993;-80
2022/03/23 07:07:16;;;;;;;22.05;10.55;;;;;;;5.06;47.15;99170.87;1733711;83;21031;-80
2022/03/23 07:09:42;;;;;;;23.65;10.08;;;;;;;5.20;47.08;99172.78;1747530;81;21556;-80
2022/03/23 07:12:13;;;;;;;19.10;10.70;;;;;;;5.36;46.83;99159.38;1745982;82;21020;-79
2022/03/23 07:14:41;;;;;;;28.20;10.88;;;;;;;5.51;46.50;99166.11;1753036;82;20983;-79
2022/03/23 07:17:09;;;;;;;23.73;10.48;;;;;;;5.69;46.40;99160.55;1753669;82;21667;-80
2022/03/23 07:19:35;;;;;;;16.77;8.88;;;;;;;5.82;46.36;99154.99;1750017;80;21015;-79
2022/03/23 07:22:02;;;;;;;24.60;10.40;;;;;;;6.02;46.02;99158.22;1751796;82;20948;-79
2022/03/23 07:24:29;;;;;;;21.42;9.75;;;;;;;6.15;45.84;99157.91;1746026;80;21062;-80
2022/03/23 07:26:56;;;;;;;20.62;9.60;;;;;;;6.33;45.78;99155.83;1745597;82;21094;-80
2022/03/23 07:29:24;;;;;;;20.00;9.15;;;;;;;6.46;45.67;99156.78;1751309;82;20984;-79
2022/03/23 07:31:51;;;;;;;16.77;8.75;;;;;;;6.63;44.45;99155.98;1754608;81;21377;-79
2022/03/23 07:34:19;;;;;;;21.62;9.93;;;;;;;6.75;45.38;99156.05;1745944;82;20976;-80
2022/03/23 07:36:48;;;;;;;19.90;9.10;;;;;;;6.88;44.92;99154.80;1707616;83;21002;-84
2022/03/23 07:39:25;;;;;;;19.35;8.95;;;;;;;7.05;44.05;99154.41;1754471;82;20999;-84
2022/03/23 07:41:52;;;;;;;18.27;8.45;;;;;;;7.30;42.77;99154.94;1721065;83;20940;-84
2022/03/23 07:44:19;;;;;;;21.93;9.55;;;;;;;7.46;42.99;99147.49;1751105;81;21093;-85
2022/03/23 07:46:46;;;;;;;18.95;9.63;;;;;;;7.59;43.35;99145.75;1756119;80;20995;-84
2022/03/23 07:49:14;;;;;;;20.08;10.20;;;;;;;7.72;42.66;99140.50;1722460;83;21034;-84
2022/03/23 07:51:41;;;;;;;19.92;8.95;;;;;;;7.83;42.98;99140.48;1754656;82;21446;-85
2022/03/23 07:54:08;;;;;;;24.90;10.35;;;;;;;7.91;42.78;99139.62;1752071;81;21051;-85
2022/03/23 07:56:35;;;;;;;19.50;9.98;;;;;;;8.00;42.33;99134.77;1733046;83;20987;-85
2022/03/23 07:59:03;;;;;;;20.90;9.93;;;;;;;8.12;42.77;99138.27;1706734;83;20999;-86
2022/03/23 08:01:29;;;;;;;17.50;9.93;;;;;;;8.23;41.20;99137.83;1754657;82;20983;-86
2022/03/23 08:03:56;;;;;;;17.57;10.18;;;;;;;8.41;41.23;99125.45;1735003;83;20983;-86
2022/03/23 08:06:22;;;;;;;20.75;8.35;;;;;;;8.56;41.31;99130.72;1705749;84;21019;-84
2022/03/23 08:08:49;;;;;;;17.82;9.15;;;;;;;8.68;40.99;99125.84;1707440;84;21007;-84
2022/03/23 08:11:18;;;;;;;14.35;8.35;;;;;;;8.83;40.73;99123.59;1731037;83;20971;-85
2022/03/23 08:13:44;;;;;;;14.15;7.78;;;;;;;8.96;38.72;99122.20;1708588;83;20963;-85
2022/03/23 08:16:11;;;;;;;16.05;7.37;;;;;;;9.06;40.05;99117.30;1749722;82;21436;-84
2022/03/23 08:18:38;;;;;;;14.07;6.83;;;;;;;9.17;39.79;99119.03;1693808;84;21059;-84
2022/03/23 08:21:06;;;;;;;24.32;13.15;;;;;;;9.28;37.84;99113.66;1687937;84;21072;-83
2022/03/23 08:23:35;;;;;;;49.13;24.95;;;;;;;9.38;37.91;99110.95;1716656;83;21049;-82
2022/03/23 08:26:05;;;;;;;19.45;9.25;;;;;;;9.49;37.83;99113.96;1750170;82;21035;-88
2022/03/23 08:28:34;;;;;;;13.58;6.37;;;;;;;9.59;37.77;99101.55;1754573;81;20984;-89
2022/03/23 08:31:01;;;;;;;15.08;5.83;;;;;;;9.70;37.75;99096.16;1696862;84;21083;-88
2022/03/23 08:33:32;;;;;;;10.80;6.20;;;;;;;9.94;33.74;99095.51;1707668;84;21066;-88
2022/03/23 08:35:56;;;;;;;10.43;6.20;;;;;;;10.15;34.44;99092.67;1744155;82;21036;-86
2022/03/23 08:38:23;;;;;;;12.13;6.15;;;;;;;10.30;35.16;99090.76;1755366;82;21397;-87
2022/03/23 08:40:51;;;;;;;11.68;5.72;;;;;;;10.39;35.40;99087.98;1751394;82;21007;-84
2022/03/23 08:43:18;;;;;;;11.43;5.78;;;;;;;10.57;33.28;99096.66;1756539;81;21020;-86
2022/03/23 08:45:45;;;;;;;15.55;6.90;;;;;;;10.79;33.96;99087.10;1755161;82;21040;-89
2022/03/23 08:48:11;;;;;;;12.05;6.40;;;;;;;10.92;34.49;99082.55;1752706;81;21023;-85
2022/03/23 08:50:40;;;;;;;15.00;6.87;;;;;;;11.00;33.44;99078.45;1749902;82;20988;-84
2022/03/23 08:53:07;;;;;;;11.75;5.92;;;;;;;11.12;34.72;99071.63;1750162;82;21033;-84
2022/03/23 08:55:36;;;;;;;12.25;6.40;;;;;;;11.20;33.42;99074.17;1751067;82;21801;-85
2022/03/23 08:58:03;;;;;;;11.38;7.12;;;;;;;11.33;33.28;99073.53;1720679;83;21016;-81
2022/03/23 09:00:29;;;;;;;15.80;6.53;;;;;;;11.43;33.39;99069.87;1707629;84;21053;-82
2022/03/23 09:02:56;;;;;;;12.00;6.30;;;;;;;11.53;33.19;99062.61;1751107;82;21043;-82
2022/03/23 09:05:23;;;;;;;11.65;6.40;;;;;;;11.59;32.94;99066.48;1719996;83;21016;-81
2022/03/23 09:07:49;;;;;;;15.10;6.58;;;;;;;11.66;33.47;99059.77;1707526;84;21066;-80
2022/03/23 09:10:17;;;;;;;11.90;6.20;;;;;;;11.68;32.56;99060.17;1750876;82;21492;-80
2022/03/23 09:12:45;;;;;;;10.55;5.72;;;;;;;11.81;31.64;99054.63;1747597;82;20976;-83
2022/03/23 09:15:14;;;;;;;9.08;6.17;;;;;;;11.98;30.42;99055.22;1754468;82;21014;-82
2022/03/23 09:17:42;;;;;;;10.72;5.95;;;;;;;12.07;30.38;99046.66;1753953;82;20987;-84
2022/03/23 09:20:12;;;;;;;9.70;6.25;;;;;;;12.16;31.03;99048.30;1756524;82;21000;-83
2022/03/23 09:22:44;;;;;;;9.90;6.40;;;;;;;12.26;31.00;99046.73;1720360;83;21015;-83
2022/03/23 09:25:14;;;;;;;12.43;6.22;;;;;;;12.38;30.30;99034.13;1697875;84;21014;-84
2022/03/23 09:27:43;;;;;;;11.40;6.30;;;;;;;12.50;30.47;99034.33;1719282;83;21052;-85
2022/03/23 09:30:14;;;;;;;12.07;6.55;;;;;;;12.65;30.84;99025.14;1695805;84;21058;-85
2022/03/23 09:32:44;;;;;;;13.18;7.15;;;;;;;12.75;30.34;99025.36;1718263;83;21174;-84
2022/03/23 09:35:12;;;;;;;16.20;6.62;;;;;;;12.81;29.62;99024.36;1698030;84;21524;-86
2022/03/23 09:37:48;;;;;;;9.83;6.00;;;;;;;12.98;29.59;99019.98;1679681;85;21129;-85
2022/03/23 09:40:31;;;;;;;12.40;7.47;;;;;;;13.14;29.12;99017.85;1682246;85;20988;-85
2022/03/23 09:43:12;;;;;;;10.85;6.40;;;;;;;13.33;27.84;99010.77;1686180;85;21421;-84
2022/03/23 09:45:48;;;;;;;12.98;7.12;;;;;;;13.45;27.54;99006.45;1687497;85;20988;-85
2022/03/23 09:48:22;;;;;;;9.20;6.40;;;;;;;13.57;28.11;99003.08;1688534;85;21031;-84
2022/03/23 09:50:55;;;;;;;11.45;6.53;;;;;;;13.65;28.43;98996.22;1710345;83;20951;-84
2022/03/23 09:53:24;;;;;;;10.05;6.72;;;;;;;13.68;26.99;98996.16;1705491;83;21032;-87
2022/03/23 09:55:56;;;;;;;11.00;6.83;;;;;;;13.79;27.72;98993.21;1705689;83;21363;-84
2022/03/23 09:58:24;;;;;;;10.05;6.45;;;;;;;13.89;25.73;98993.82;1666544;85;21426;-82
2022/03/23 10:00:52;;;;;;;9.95;6.20;;;;;;;14.02;25.94;98988.58;1689268;84;21491;-82
2022/03/23 10:04:15;;;;;;;14.28;6.45;;;;;;;14.13;26.72;98989.63;1698925;84;21063;-82
2022/03/23 10:07:21;;;;;;;14.45;5.95;;;;;;;14.19;24.70;98981.44;1690295;84;21066;-83
2022/03/23 10:10:27;;;;;;;11.97;5.55;;;;;;;14.32;26.05;98976.62;1690866;84;21484;-84
2022/03/23 10:13:42;;;;;;;11.75;5.67;;;;;;;14.44;26.36;98974.50;1699372;84;20995;-82
2022/03/23 10:16:48;;;;;;;13.03;6.35;;;;;;;14.61;26.37;98968.66;1720417;83;21008;-81
2022/03/23 10:19:14;;;;;;;11.08;5.83;;;;;;;14.87;24.82;98955.03;1686303;85;20993;-83
2022/03/23 10:21:41;;;;;;;12.00;6.55;;;;;;;15.05;25.81;98950.89;1719778;83;21051;-83
2022/03/23 10:24:13;;;;;;;14.78;7.00;;;;;;;15.20;25.64;98952.16;1706054;83;21000;-81
2022/03/23 10:26:41;;;;;;;10.75;6.25;;;;;;;15.36;25.23;98945.85;1750817;82;21426;-81
2022/03/23 10:29:21;;;;;;;15.78;7.47;;;;;;;15.57;24.13;98944.70;1683416;84;21004;-82
2022/03/23 10:32:05;;;;;;;11.25;6.85;;;;;;;15.65;24.33;98940.45;1751345;82;21003;-81
2022/03/23 10:34:47;;;;;;;11.73;6.67;;;;;;;15.70;24.65;98937.15;1734025;82;21456;-88
2022/03/23 10:37:18;;;;;;;11.88;6.17;;;;;;;15.81;25.17;98934.07;1740625;82;21031;-88
2022/03/23 10:39:48;;;;;;;13.98;6.90;;;;;;;15.87;24.60;98921.84;1710995;84;21018;-86
2022/03/23 10:42:18;;;;;;;10.40;6.75;;;;;;;15.99;24.75;98930.36;1714314;83;21005;-82
2022/03/23 10:44:45;;;;;;;12.75;7.03;;;;;;;16.09;24.31;98919.73;1714307;84;21075;-87
2022/03/23 10:47:28;;;;;;;12.98;6.53;;;;;;;16.49;21.04;98910.17;1714325;84;21398;-83
2022/03/23 10:49:55;;;;;;;13.00;6.53;;;;;;;17.58;21.25;98908.91;1714925;83;21040;-83
2022/03/23 10:52:25;;;;;;;14.87;7.12;;;;;;;19.09;22.13;98902.44;1715483;83;21052;-84
2022/03/23 10:54:59;;;;;;;10.95;7.47;;;;;;;20.36;19.70;98894.08;1715661;83;21010;-81
2022/03/23 10:57:53;;;;;;;9.73;6.15;;;;;;;21.58;19.70;98886.66;1715691;84;21460;-84
2022/03/23 11:00:34;;;;;;;12.93;6.90;;;;;;;22.59;17.73;98879.58;1700266;84;21028;-87
2022/03/23 11:03:03;;;;;;;11.93;6.00;;;;;;;23.54;18.61;98872.80;1735606;83;21055;-84
2022/03/23 11:05:39;;;;;;;13.35;6.95;;;;;;;24.33;17.39;98867.75;1735629;83;21015;-83
2022/03/23 11:08:24;;;;;;;10.18;6.12;;;;;;;24.72;14.60;98865.42;1735306;82;21012;-86
2022/03/23 11:16:46;;;;;;;12.58;8.25;;;;;;;26.75;15.38;98847.39;1731444;83;20980;-85
2022/03/23 11:19:19;;;;;;;8.38;5.85;;;;;;;27.24;13.68;98840.69;1751913;82;21015;-82
2022/03/23 11:22:11;;;;;;;13.28;9.03;;;;;;;27.39;11.80;98843.94;1735063;83;21003;-82
2022/03/23 11:24:47;;;;;;;10.30;5.80;;;;;;;27.55;12.94;98836.67;1725164;83;20985;-82
2022/03/23 11:27:17;;;;;;;9.73;5.72;;;;;;;28.41;12.70;98827.85;1755690;81;20940;-81
2022/03/23 11:29:47;;;;;;;7.03;6.22;;;;;;;28.91;12.53;98825.59;1719702;83;21450;-82
2022/03/23 11:32:18;;;;;;;9.58;5.37;;;;;;;29.03;12.34;98814.04;1719713;83;21027;-81
2022/03/23 11:34:51;;;;;;;9.75;5.10;;;;;;;29.22;10.31;98817.25;1730801;81;21103;-82
2022/03/23 11:37:19;;;;;;;9.93;5.78;;;;;;;28.98;11.07;98806.79;1737693;81;20968;-81
2022/03/23 11:39:46;;;;;;;9.78;5.45;;;;;;;29.46;11.78;98808.22;1743297;81;20995;-81
2022/03/23 11:42:15;;;;;;;8.23;4.97;;;;;;;29.82;10.70;98805.72;1756470;82;20992;-81
2022/03/23 11:44:42;;;;;;;7.30;5.22;;;;;;;29.86;9.92;98792.61;1720610;83;21040;-82
2022/03/23 11:47:38;;;;;;;10.65;5.45;;;;;;;29.53;9.08;98791.66;1756539;82;21019;-81
2022/03/23 11:50:13;;;;;;;12.70;5.87;;;;;;;29.44;10.46;98789.25;1720712;83;20961;-83
2022/03/23 11:52:51;;;;;;;10.50;5.53;;;;;;;29.85;8.67;98778.61;1756598;81;21417;-86
2022/03/23 11:55:38;;;;;;;12.20;6.20;;;;;;;30.47;9.42;98771.67;1754609;82;21460;-82